Terminal Aerodrome Forecast
Issued by NWS

Home | Current Version | Previous Version | Text Only | Print | Product List | Glossary On
Versions: 1 2 3 4 5 6 7 8 9 10 11 12 13 14 15
000
FTUS45 KRIW 212300
TAFCPR
TAF
KCPR 212324Z 2200/2224 23014G20KT P6SM FEW200
     FM220800 23017G27KT P6SM SCT150 BKN200
     FM221300 22025G35KT P6SM SCT050 BKN070
     FM221700 22035G50KT P6SM SCT035 BKN050=

USA.gov is the U.S. government's official web portal to all federal, state and local government web resources and services.